createdAt,value
2022-11-13T00:00:00.033Z,74.29
2022-11-13T00:04:02.882Z,74.50
2022-11-13T00:07:48.950Z,74.44
2022-11-13T00:11:35.239Z,74.43
2022-11-13T00:15:21.533Z,74.67
2022-11-13T00:19:07.463Z,74.49
2022-11-13T00:22:53.412Z,74.63
2022-11-13T00:26:40.042Z,74.57
2022-11-13T00:30:26.346Z,74.87
2022-11-13T00:34:41.488Z,74.95
2022-11-13T00:38:22.311Z,74.93
2022-11-13T00:42:08.450Z,74.56
2022-11-13T00:45:56.265Z,74.77
2022-11-13T00:49:42.156Z,74.68
2022-11-13T00:53:28.402Z,74.47
2022-11-13T00:57:14.450Z,74.46
2022-11-13T01:01:08.906Z,74.48
2022-11-13T01:04:55.154Z,74.68
2022-11-13T01:08:43.740Z,74.82
2022-11-13T01:12:29.751Z,74.82
2022-11-13T01:16:18.965Z,74.76
2022-11-13T01:20:06.482Z,74.88
2022-11-13T01:23:54.885Z,75.03
2022-11-13T01:27:41.051Z,75.03
2022-11-13T01:31:29.614Z,74.71
2022-11-13T01:35:15.197Z,74.91
2022-11-13T01:39:00.785Z,75.18
2022-11-13T01:42:46.230Z,74.90
2022-11-13T01:46:35.333Z,74.92
2022-11-13T01:50:21.437Z,74.99
2022-11-13T01:54:11.904Z,74.89
2022-11-13T01:57:58.245Z,74.81
2022-11-13T02:01:43.935Z,74.73
2022-11-13T02:05:29.781Z,75.10
2022-11-13T02:09:16.849Z,75.11
2022-11-13T02:13:03.460Z,75.19
2022-11-13T02:16:54.132Z,75.13
2022-11-13T02:20:48.383Z,75.39
2022-11-13T02:24:40.985Z,75.34
2022-11-13T02:28:29.175Z,75.44
2022-11-13T02:32:15.135Z,75.36
2022-11-13T02:36:01.543Z,75.32
2022-11-13T02:39:49.107Z,75.32
2022-11-13T02:43:35.304Z,75.31
2022-11-13T02:47:20.918Z,75.37
2022-11-13T02:51:07.487Z,75.18
2022-11-13T02:54:55.285Z,74.85
2022-11-13T02:58:40.938Z,75.02
2022-11-13T03:02:28.234Z,74.96
2022-11-13T03:06:14.274Z,75.10
2022-11-13T03:10:00.460Z,75.19
2022-11-13T03:13:46.406Z,75.32
2022-11-13T03:17:34.106Z,75.28
2022-11-13T03:21:19.952Z,75.44
2022-11-13T03:25:10.498Z,75.55
2022-11-13T03:28:58.811Z,75.27
2022-11-13T03:32:45.114Z,75.45
2022-11-13T03:36:31.370Z,75.52
2022-11-13T03:40:17.598Z,75.44
2022-11-13T03:44:03.576Z,75.65
2022-11-13T03:47:49.894Z,75.53
2022-11-13T03:51:36.233Z,75.57
2022-11-13T03:55:21.855Z,75.70
2022-11-13T03:59:08.068Z,75.70
2022-11-13T04:02:53.929Z,75.52
2022-11-13T04:06:40.233Z,75.51
2022-11-13T04:10:26.115Z,75.59
2022-11-13T04:14:12.131Z,75.48
2022-11-13T04:17:57.931Z,75.43
2022-11-13T04:21:43.885Z,75.40
2022-11-13T04:25:29.403Z,75.56
2022-11-13T04:29:15.813Z,75.52
2022-11-13T04:33:01.717Z,75.61
2022-11-13T04:36:46.884Z,75.64
2022-11-13T04:40:32.849Z,75.55
2022-11-13T04:44:18.680Z,75.78
2022-11-13T04:48:05.238Z,75.74
2022-11-13T04:51:51.236Z,75.73
2022-11-13T04:55:37.491Z,75.64
2022-11-13T04:59:23.341Z,75.71
2022-11-13T05:03:09.771Z,75.64
2022-11-13T05:06:55.895Z,75.55
2022-11-13T05:10:41.640Z,75.41
2022-11-13T05:14:27.372Z,75.43
2022-11-13T05:18:13.132Z,75.34
2022-11-13T05:21:59.156Z,75.00
2022-11-13T05:25:44.927Z,75.26
2022-11-13T05:29:31.156Z,75.60
2022-11-13T05:33:17.433Z,75.63
2022-11-13T05:37:03.404Z,75.39
2022-11-13T05:40:48.960Z,75.57
2022-11-13T05:44:35.034Z,75.80
2022-11-13T05:48:21.135Z,75.99
2022-11-13T05:52:06.828Z,75.72
2022-11-13T05:55:52.753Z,75.78
2022-11-13T05:59:39.236Z,75.84
2022-11-13T06:03:26.166Z,75.72
2022-11-13T06:07:11.913Z,75.51
2022-11-13T06:11:02.047Z,75.60
2022-11-13T06:14:48.204Z,75.88
2022-11-13T06:18:35.410Z,75.93
2022-11-13T06:22:21.533Z,75.72
2022-11-13T06:26:08.452Z,75.62
2022-11-13T06:29:53.779Z,75.55
2022-11-13T06:33:44.646Z,75.65
2022-11-13T06:37:34.493Z,75.82
2022-11-13T06:41:22.349Z,75.83
2022-11-13T06:45:08.662Z,76.03
2022-11-13T06:48:54.556Z,75.96
2022-11-13T06:52:39.763Z,76.00
2022-11-13T06:56:25.974Z,76.06
2022-11-13T07:00:14.161Z,76.11
2022-11-13T07:04:00.363Z,75.97
2022-11-13T07:07:45.632Z,75.89
2022-11-13T07:11:31.343Z,76.19
2022-11-13T07:15:17.382Z,76.29
2022-11-13T07:19:05.660Z,76.46
2022-11-13T07:22:51.059Z,76.18
2022-11-13T07:26:37.464Z,76.30
2022-11-13T07:30:24.014Z,76.07
2022-11-13T07:34:10.006Z,76.09
2022-11-13T07:38:00.106Z,76.13
2022-11-13T07:41:45.744Z,76.36
2022-11-13T07:45:31.968Z,76.37
2022-11-13T07:49:18.874Z,76.41
2022-11-13T07:53:06.515Z,76.40
2022-11-13T07:56:52.103Z,76.46
2022-11-13T08:00:38.603Z,76.30
2022-11-13T08:04:24.402Z,76.27
2022-11-13T08:08:13.122Z,76.44
2022-11-13T08:11:58.643Z,76.33
2022-11-13T08:15:44.233Z,76.53
2022-11-13T08:19:29.995Z,76.68
2022-11-13T08:23:15.477Z,76.63
2022-11-13T08:27:01.524Z,76.74
2022-11-13T08:30:48.310Z,76.58
2022-11-13T08:34:35.879Z,76.51
2022-11-13T08:38:22.797Z,76.61
2022-11-13T08:42:09.114Z,76.31
2022-11-13T08:45:54.655Z,76.59
2022-11-13T08:49:40.329Z,76.39
2022-11-13T08:53:26.797Z,76.54
2022-11-13T08:57:12.924Z,76.62
2022-11-13T09:01:05.597Z,76.71
2022-11-13T09:04:51.539Z,76.41
2022-11-13T09:08:38.818Z,76.57
2022-11-13T09:12:24.653Z,76.75
2022-11-13T09:16:11.139Z,76.64
2022-11-13T09:20:02.192Z,76.78
2022-11-13T09:23:49.791Z,76.89
2022-11-13T09:27:35.458Z,77.14
2022-11-13T09:31:23.398Z,77.37
2022-11-13T09:35:10.142Z,77.15
2022-11-13T09:38:56.177Z,77.09
2022-11-13T09:42:43.714Z,76.78
2022-11-13T09:46:42.002Z,77.04
2022-11-13T09:50:30.691Z,76.88
2022-11-13T09:54:17.462Z,76.54
2022-11-13T09:58:12.238Z,76.88
2022-11-13T10:02:05.007Z,76.75
2022-11-13T10:05:58.865Z,76.87
2022-11-13T10:10:00.921Z,76.88
2022-11-13T10:13:53.963Z,76.80
2022-11-13T10:17:44.019Z,76.47
2022-11-13T10:21:35.018Z,76.31
2022-11-13T10:25:22.917Z,76.60
2022-11-13T10:29:15.336Z,76.27
2022-11-13T10:33:09.440Z,76.50
2022-11-13T10:37:21.491Z,76.32
2022-11-13T10:41:14.159Z,76.27
2022-11-13T10:45:01.679Z,76.32
2022-11-13T10:48:48.947Z,76.51
2022-11-13T10:52:38.541Z,76.31
2022-11-13T10:56:31.630Z,76.62
2022-11-13T11:00:26.836Z,76.57
2022-11-13T11:04:21.376Z,76.85
2022-11-13T11:08:12.351Z,76.76
2022-11-13T11:12:18.726Z,76.62
2022-11-13T11:16:44.693Z,76.70
2022-11-13T11:20:46.788Z,76.58
2022-11-13T11:24:36.753Z,76.55
2022-11-13T11:28:31.924Z,76.30
2022-11-13T11:32:24.826Z,76.22
2022-11-13T11:36:23.597Z,76.35
2022-11-13T11:40:21.618Z,76.56
2022-11-13T11:44:16.994Z,76.42
2022-11-13T11:48:06.468Z,76.23
2022-11-13T11:52:05.607Z,76.29
2022-11-13T11:56:19.909Z,76.31
2022-11-13T12:00:12.523Z,76.54
2022-11-13T12:04:16.248Z,76.54
2022-11-13T12:08:13.486Z,76.22
2022-11-13T12:12:11.573Z,76.26
2022-11-13T12:16:04.444Z,76.35
2022-11-13T12:20:03.963Z,76.57
2022-11-13T12:24:07.516Z,76.35
2022-11-13T12:28:00.169Z,76.45
2022-11-13T12:31:59.429Z,76.29
2022-11-13T12:36:13.529Z,76.13
2022-11-13T12:40:07.576Z,76.15
2022-11-13T12:44:24.598Z,76.16
2022-11-13T12:48:29.201Z,76.33
2022-11-13T12:52:24.660Z,76.37
2022-11-13T12:56:19.188Z,76.09
2022-11-13T13:00:26.855Z,76.43
2022-11-13T13:04:46.653Z,76.25
2022-11-13T13:08:58.519Z,76.29
2022-11-13T13:12:57.081Z,76.36
2022-11-13T13:16:51.495Z,76.26
2022-11-13T13:20:40.461Z,76.54
2022-11-13T13:24:38.231Z,76.15
2022-11-13T13:28:25.797Z,76.12
2022-11-13T13:32:21.388Z,75.90
2022-11-13T13:36:18.230Z,75.68
2022-11-13T13:40:22.277Z,75.83
2022-11-13T13:50:40.572Z,75.60
2022-11-13T14:05:35.729Z,75.69
2022-11-13T14:09:24.086Z,75.66
2022-11-13T14:13:17.023Z,75.94
2022-11-13T14:17:04.175Z,75.98
2022-11-13T14:20:55.908Z,75.76
2022-11-13T14:24:52.060Z,75.85
2022-11-13T14:28:53.597Z,75.91
2022-11-13T14:32:47.278Z,75.64
2022-11-13T14:36:37.412Z,75.68
2022-11-13T14:40:26.617Z,75.79
2022-11-13T14:44:30.746Z,75.99
2022-11-13T14:48:24.580Z,76.08
2022-11-13T14:52:24.483Z,76.11
2022-11-13T14:56:13.472Z,75.97
2022-11-13T15:00:13.394Z,75.98
2022-11-13T15:04:03.824Z,75.80
2022-11-13T15:07:51.561Z,75.89
2022-11-13T15:11:40.598Z,75.76
2022-11-13T15:15:36.387Z,75.54
2022-11-13T15:19:27.229Z,75.60
2022-11-13T15:23:17.664Z,75.65
2022-11-13T15:27:07.209Z,75.70
2022-11-13T15:30:54.577Z,75.75
2022-11-13T15:34:44.694Z,75.88
2022-11-13T15:38:32.575Z,75.78
2022-11-13T15:42:23.972Z,75.61
2022-11-13T15:46:16.447Z,75.66
2022-11-13T15:50:15.287Z,75.46
2022-11-13T15:54:03.981Z,75.42
2022-11-13T15:57:54.045Z,75.56
2022-11-13T16:01:42.533Z,75.38
2022-11-13T16:05:33.905Z,75.27
2022-11-13T16:09:21.974Z,75.34
2022-11-13T16:13:13.617Z,75.62
2022-11-13T16:17:00.484Z,75.69
2022-11-13T16:20:47.860Z,75.71
2022-11-13T16:24:34.274Z,75.63
2022-11-13T16:28:23.062Z,75.72
2022-11-13T16:32:11.618Z,75.50
2022-11-13T16:36:06.705Z,75.46
2022-11-13T16:40:00.329Z,75.64
2022-11-13T16:43:52.791Z,75.36
2022-11-13T16:47:42.797Z,75.27
2022-11-13T16:51:31.429Z,75.26
2022-11-13T16:55:20.016Z,75.34
2022-11-13T16:59:14.066Z,75.46
2022-11-13T17:03:04.728Z,75.58
2022-11-13T17:06:56.567Z,75.69
2022-11-13T17:10:44.707Z,75.60
2022-11-13T17:14:30.820Z,75.49
2022-11-13T17:18:17.327Z,75.66
2022-11-13T17:22:04.156Z,75.43
2022-11-13T17:25:52.199Z,75.52
2022-11-13T17:29:40.263Z,75.53
2022-11-13T17:33:26.642Z,75.85
2022-11-13T17:37:13.469Z,75.73
2022-11-13T17:41:05.977Z,75.72
2022-11-13T17:44:51.859Z,75.63
2022-11-13T17:48:41.651Z,75.68
2022-11-13T17:52:28.099Z,75.48
2022-11-13T17:56:16.616Z,75.56
2022-11-13T18:00:04.211Z,75.50
2022-11-13T18:03:55.568Z,75.61
2022-11-13T18:07:41.511Z,75.56
2022-11-13T18:11:29.989Z,75.29
2022-11-13T18:15:17.296Z,75.40
2022-11-13T18:19:07.072Z,75.65
2022-11-13T18:22:53.922Z,75.82
2022-11-13T18:26:40.414Z,75.82
2022-11-13T18:30:26.405Z,75.90
2022-11-13T18:34:16.996Z,75.89
2022-11-13T18:38:05.807Z,75.51
2022-11-13T18:41:52.297Z,75.64
2022-11-13T18:45:40.699Z,75.49
2022-11-13T18:49:27.340Z,75.50
2022-11-13T18:53:15.317Z,75.38
2022-11-13T18:57:03.849Z,75.34
2022-11-13T19:00:50.558Z,75.26
2022-11-13T19:04:38.401Z,75.24
2022-11-13T19:08:25.954Z,75.45
2022-11-13T19:12:12.931Z,75.56
2022-11-13T19:15:59.751Z,75.67
2022-11-13T19:19:47.922Z,75.81
2022-11-13T19:23:37.539Z,75.97
2022-11-13T19:27:25.485Z,75.81
2022-11-13T19:31:19.154Z,75.84
2022-11-13T19:35:08.109Z,75.90
2022-11-13T19:38:57.846Z,75.68
2022-11-13T19:42:45.516Z,75.79
2022-11-13T19:46:34.384Z,75.51
2022-11-13T19:50:24.730Z,75.67
2022-11-13T19:54:14.270Z,75.52
2022-11-13T19:58:02.530Z,75.37
2022-11-13T20:01:48.755Z,75.54
2022-11-13T20:05:34.935Z,75.64
2022-11-13T20:09:20.933Z,75.76
2022-11-13T20:13:07.535Z,75.73
2022-11-13T20:16:56.194Z,75.80
2022-11-13T20:20:54.430Z,75.91
2022-11-13T20:24:42.827Z,75.93
2022-11-13T20:28:33.000Z,75.80
2022-11-13T20:32:20.140Z,75.76
2022-11-13T20:36:12.714Z,75.95
2022-11-13T20:40:00.878Z,75.84
2022-11-13T20:43:56.316Z,75.88
2022-11-13T20:47:49.784Z,75.83
2022-11-13T20:51:36.593Z,75.90
2022-11-13T20:55:24.239Z,75.92
2022-11-13T20:59:11.037Z,75.92
2022-11-13T21:03:07.903Z,75.74
2022-11-13T21:06:55.671Z,75.86
2022-11-13T21:10:42.129Z,75.84
2022-11-13T21:14:29.248Z,75.85
2022-11-13T21:18:21.008Z,75.72
2022-11-13T21:22:13.397Z,75.83
2022-11-13T21:26:08.279Z,75.76
2022-11-13T21:29:58.251Z,75.99
2022-11-13T21:33:51.087Z,76.01
2022-11-13T21:37:38.010Z,76.06
2022-11-13T21:41:28.445Z,76.23
2022-11-13T21:45:25.886Z,76.13
2022-11-13T21:49:14.643Z,76.41
2022-11-13T21:53:01.152Z,76.27
2022-11-13T21:56:48.402Z,76.29
2022-11-13T22:00:34.452Z,76.28
2022-11-13T22:04:21.378Z,76.19
2022-11-13T22:08:08.010Z,76.17
2022-11-13T22:11:53.599Z,76.12
2022-11-13T22:15:39.719Z,76.22
2022-11-13T22:19:28.419Z,76.31
2022-11-13T22:23:19.597Z,76.05
2022-11-13T22:27:05.532Z,76.03
2022-11-13T22:30:52.438Z,76.11
2022-11-13T22:34:43.169Z,76.06
2022-11-13T22:38:35.375Z,76.27
2022-11-13T22:42:21.686Z,76.14
2022-11-13T22:46:10.242Z,76.23
2022-11-13T22:49:58.606Z,76.37
2022-11-13T22:53:50.285Z,76.25
2022-11-13T22:57:36.579Z,76.38
2022-11-13T23:01:25.291Z,76.40
2022-11-13T23:05:12.209Z,76.27
2022-11-13T23:08:59.766Z,76.15
2022-11-13T23:12:45.999Z,76.13
2022-11-13T23:16:32.647Z,76.27
2022-11-13T23:20:19.491Z,76.36
2022-11-13T23:24:06.606Z,76.21
2022-11-13T23:27:53.628Z,76.17
2022-11-13T23:31:39.708Z,76.14
2022-11-13T23:35:27.957Z,76.29
2022-11-13T23:39:15.812Z,76.33
2022-11-13T23:43:04.394Z,76.38
2022-11-13T23:46:50.578Z,76.53
2022-11-13T23:50:37.973Z,76.50
2022-11-13T23:54:25.235Z,76.43
2022-11-13T23:58:16.720Z,76.37
